ブエノスアイレス/エセイサ の空港の天気 - METARとTAF

エセイサ国際空港 ( SAEZ / EZE ) - アルゼンチン ブエノスアイレス州、Ezeiza
飛行場実況気象(Metar)
観測時間08/13 02:00 ART (08/13 05:00 UTC)
風向・風速北北西 3m/s
視程9000m
天気現象
全天の4割程度の雲 雲底高度 430m
気温9℃
湿度53%
気圧1014hPa
METARSAEZ 130500Z 34006KT 9000 SCT014 09/M00 Q1014 NOSIG
過去の天気等 Google飛行場航空写真 Wunderground天気予報

過去48時間のMETAR

飛行場予報(TAF)
発表時間: 8/12 20:00 ART (8/12 23:00 UTC)
予報対象時間: 12日21時 ART ~ 13日21時 ART
風向・風速北北西 3m/s
視程10km以上
なし
TAF SAEZ 122300Z 1300/1324 34005KT CAVOK TX19/1318Z TN02/1311Z